Time;durP1;ratioP1;P1;durP2;ratioP2;P2;SDS_P1;SDS_P2;PMS_P1;PMS_P2;Temp;Humidity;BMP_temperature;BMP_pressure;BME280_temperature;BME280_humidity;BME280_pressure;Samples;Min_cycle;Max_cycle;Signal;HPM_P1;HPM_P2
2022/04/21 00:01:36;;;;;;;12.75;5.30;;;6.40;99.90;;;;;;5052379;28;20095;-70
2022/04/21 00:04:02;;;;;;;12.02;5.05;;;6.40;99.90;;;;;;5034584;28;20416;-71
2022/04/21 00:06:28;;;;;;;11.70;5.43;;;6.30;99.90;;;;;;5053076;28;20161;-70
2022/04/21 00:08:54;;;;;;;13.02;5.53;;;6.30;99.90;;;;;;5052928;28;20049;-69
2022/04/21 00:11:21;;;;;;;9.65;4.47;;;6.30;99.90;;;;;;5035089;28;20102;-70
2022/04/21 00:13:47;;;;;;;11.73;5.50;;;6.30;99.90;;;;;;5035115;28;20056;-70
2022/04/21 00:16:12;;;;;;;12.73;6.68;;;6.30;99.90;;;;;;5052650;28;20052;-70
2022/04/21 00:18:38;;;;;;;12.98;6.15;;;6.20;99.90;;;;;;5052369;28;20045;-71
2022/04/21 00:21:05;;;;;;;11.95;5.60;;;6.30;99.90;;;;;;5052670;28;20037;-69
2022/04/21 00:23:31;;;;;;;11.68;5.78;;;6.20;99.90;;;;;;5052484;28;20061;-70
2022/04/21 00:26:00;;;;;;;11.75;5.93;;;6.20;99.90;;;;;;5052645;28;20500;-70
2022/04/21 00:28:28;;;;;;;13.25;5.60;;;6.90;99.90;;;;;;5034773;28;20143;-70
2022/04/21 00:30:54;;;;;;;12.70;6.68;;;6.20;99.90;;;;;;5054347;28;20045;-70
2022/04/21 00:33:20;;;;;;;11.63;5.72;;;6.20;99.90;;;;;;5056141;28;20497;-71
2022/04/21 00:35:45;;;;;;;11.18;5.10;;;6.20;99.90;;;;;;5056510;28;20139;-70
2022/04/21 00:38:11;;;;;;;13.57;6.45;;;6.10;99.90;;;;;;5056843;28;20518;-70
2022/04/21 00:40:37;;;;;;;13.02;6.30;;;6.10;99.90;;;;;;5056706;28;20037;-71
2022/04/21 00:43:02;;;;;;;14.18;6.65;;;6.10;99.90;;;;;;5056545;28;20033;-70
2022/04/21 00:45:29;;;;;;;11.80;5.88;;;6.20;99.90;;;;;;5056720;28;20048;-70
2022/04/21 00:47:57;;;;;;;13.45;6.57;;;6.10;99.90;;;;;;5038223;28;20488;-70
2022/04/21 00:50:27;;;;;;;11.82;5.55;;;6.10;99.90;;;;;;5055691;28;20041;-70
2022/04/21 00:52:54;;;;;;;12.75;6.15;;;6.00;99.90;;;;;;5056400;28;20037;-69
2022/04/21 00:55:21;;;;;;;11.98;5.88;;;6.00;99.90;;;;;;5056468;28;20064;-70
2022/04/21 00:57:48;;;;;;;12.00;6.30;;;6.00;99.90;;;;;;5056354;28;20055;-69
2022/04/21 01:00:15;;;;;;;13.23;6.10;;;6.00;99.90;;;;;;5056256;28;20049;-70
2022/04/21 01:02:49;;;;;;;13.80;6.63;;;5.90;99.90;;;;;;5056148;28;20052;-70
2022/04/21 01:05:30;;;;;;;13.30;6.53;;;5.90;99.90;;;;;;5037473;28;20524;-69
2022/04/21 01:08:03;;;;;;;13.95;6.60;;;5.90;99.90;;;;;;5038191;28;20084;-71
2022/04/21 01:10:31;;;;;;;13.90;6.80;;;5.90;99.90;;;;;;5038126;28;20045;-71
2022/04/21 01:12:58;;;;;;;13.55;6.97;;;6.20;99.90;;;;;;5056137;28;20040;-68
2022/04/21 01:15:25;;;;;;;14.65;7.35;;;5.90;99.90;;;;;;5055969;28;20049;-71
2022/04/21 01:17:52;;;;;;;16.27;7.65;;;6.00;99.90;;;;;;5038123;28;20511;-71
2022/04/21 01:20:19;;;;;;;13.77;7.55;;;6.00;99.90;;;;;;5038127;28;20378;-70
2022/04/21 01:22:46;;;;;;;13.88;7.43;;;5.90;99.90;;;;;;5055868;28;20049;-72
2022/04/21 01:25:11;;;;;;;13.77;7.20;;;5.90;99.90;;;;;;5055913;28;20044;-68
2022/04/21 01:27:38;;;;;;;13.15;6.80;;;5.90;99.90;;;;;;5021375;28;20374;-70
2022/04/21 01:30:05;;;;;;;14.55;7.93;;;5.90;99.90;;;;;;5055725;28;20080;-70
2022/04/21 01:32:35;;;;;;;16.13;7.75;;;5.90;99.90;;;;;;5037799;28;20102;-68
2022/04/21 01:35:02;;;;;;;13.57;7.00;;;5.90;99.90;;;;;;5037260;28;20057;-69
2022/04/21 01:42:56;;;;;;;14.80;7.13;;;5.70;99.90;;;;;;5054567;28;20057;-71
2022/04/21 01:45:22;;;;;;;13.48;6.63;;;5.70;99.90;;;;;;5055470;28;20044;-71
2022/04/21 01:47:48;;;;;;;13.90;7.72;;;5.70;99.90;;;;;;5055367;28;20045;-70
2022/04/21 01:50:13;;;;;;;14.10;6.90;;;5.70;99.90;;;;;;5037458;28;20045;-70
2022/04/21 01:52:39;;;;;;;13.68;7.07;;;5.60;99.90;;;;;;5036804;28;20439;-71
2022/04/21 01:55:06;;;;;;;14.68;7.45;;;5.60;99.90;;;;;;5036771;28;20053;-70
2022/04/21 01:57:32;;;;;;;14.95;7.95;;;5.60;99.90;;;;;;5037151;28;20049;-69
2022/04/21 01:59:58;;;;;;;15.38;7.80;;;5.50;99.90;;;;;;5055067;28;20455;-70
2022/04/21 02:02:23;;;;;;;15.60;8.45;;;5.50;99.90;;;;;;5055172;28;20102;-70
2022/04/21 02:04:49;;;;;;;14.45;7.95;;;5.60;99.90;;;;;;5020480;28;20045;-70
2022/04/21 02:07:15;;;;;;;14.63;7.47;;;5.70;99.90;;;;;;5055006;28;20138;-70
2022/04/21 02:09:40;;;;;;;15.70;7.80;;;5.70;99.90;;;;;;5036827;28;20431;-69
2022/04/21 02:12:06;;;;;;;13.98;7.22;;;5.70;99.90;;;;;;5037142;28;20045;-70
2022/04/21 02:14:33;;;;;;;15.73;6.97;;;5.70;99.90;;;;;;5037322;28;20440;-70
2022/04/21 02:17:00;;;;;;;16.33;7.97;;;5.70;99.90;;;;;;5054982;28;20404;-70
2022/04/21 02:19:25;;;;;;;13.20;6.97;;;5.60;99.90;;;;;;5054771;28;20476;-70
2022/04/21 02:21:51;;;;;;;16.05;7.57;;;6.10;99.90;;;;;;5054792;28;20095;-70
2022/04/21 02:24:16;;;;;;;14.93;7.60;;;5.70;99.90;;;;;;5054507;28;20148;-67
2022/04/21 02:26:42;;;;;;;16.00;7.47;;;5.80;99.90;;;;;;5054287;28;20051;-70
2022/04/21 02:29:08;;;;;;;14.30;7.45;;;5.80;99.90;;;;;;5036355;28;20033;-70
2022/04/21 02:31:33;;;;;;;13.75;7.47;;;5.90;99.90;;;;;;5054540;28;20393;-71
2022/04/21 02:33:59;;;;;;;18.23;7.57;;;5.90;99.90;;;;;;5054552;28;20052;-70
2022/04/21 02:36:24;;;;;;;14.68;7.38;;;6.00;99.90;;;;;;5054686;28;20137;-70
2022/04/21 02:38:50;;;;;;;15.70;6.82;;;6.10;99.90;;;;;;5054261;28;20471;-69
2022/04/21 02:41:16;;;;;;;18.30;8.65;;;6.40;99.90;;;;;;5053865;28;20090;-70
2022/04/21 02:43:42;;;;;;;16.80;8.63;;;6.20;99.90;;;;;;5036185;28;20047;-71
2022/04/21 02:46:09;;;;;;;14.90;7.72;;;6.20;99.90;;;;;;5036221;28;20124;-70
2022/04/21 02:48:35;;;;;;;16.42;8.43;;;6.20;99.90;;;;;;5054299;28;20053;-69
2022/04/21 02:51:01;;;;;;;15.30;8.02;;;6.20;99.90;;;;;;5054253;28;20412;-69
2022/04/21 02:59:15;;;;;;;14.98;8.02;;;6.20;99.90;;;;;;4956628;28;20054;-70
2022/04/21 03:01:40;;;;;;;14.82;7.53;;;6.20;99.90;;;;;;4973258;28;20487;-70
2022/04/21 03:04:06;;;;;;;15.65;7.68;;;6.30;99.90;;;;;;4973154;28;20137;-71
2022/04/21 03:06:32;;;;;;;14.27;7.32;;;6.20;99.90;;;;;;4956581;28;20061;-71
2022/04/21 03:08:57;;;;;;;15.05;7.95;;;6.50;99.90;;;;;;4956800;28;20455;-70
2022/04/21 03:11:23;;;;;;;17.15;8.20;;;6.10;99.90;;;;;;4940914;28;20506;-70
2022/04/21 03:13:48;;;;;;;23.67;8.70;;;6.10;99.90;;;;;;4972225;28;20134;-70
2022/04/21 03:16:14;;;;;;;16.08;7.47;;;6.10;99.90;;;;;;4956819;28;20047;-70
2022/04/21 03:18:40;;;;;;;18.85;7.63;;;6.10;99.90;;;;;;4972862;28;20055;-70
2022/04/21 03:26:34;;;;;;;13.50;7.00;;;6.00;99.90;;;;;;4973986;28;20081;-70
2022/04/21 03:28:59;;;;;;;12.90;7.00;;;5.90;99.90;;;;;;5053078;28;20091;-70
2022/04/21 03:31:25;;;;;;;12.90;7.18;;;5.90;99.90;;;;;;5053276;28;20048;-70
2022/04/21 03:33:51;;;;;;;12.23;6.88;;;5.90;99.90;;;;;;5035517;28;20052;-70
2022/04/21 03:36:16;;;;;;;13.18;6.80;;;5.80;99.90;;;;;;5052952;28;20037;-69
2022/04/21 03:38:42;;;;;;;14.30;6.60;;;5.80;99.90;;;;;;5053624;28;20094;-69
2022/04/21 03:41:08;;;;;;;13.50;7.30;;;5.80;99.90;;;;;;5053485;28;20407;-71
2022/04/21 03:43:33;;;;;;;12.68;6.50;;;5.80;99.90;;;;;;5053191;28;20464;-70
2022/04/21 03:45:59;;;;;;;16.02;6.70;;;5.80;99.90;;;;;;5034987;28;20115;-70
2022/04/21 03:48:24;;;;;;;13.30;6.65;;;5.80;99.90;;;;;;5053040;28;20400;-69
2022/04/21 03:50:50;;;;;;;14.20;7.00;;;5.70;99.90;;;;;;5053144;28;20041;-70
2022/04/21 03:53:16;;;;;;;12.07;6.15;;;5.70;99.90;;;;;;5052936;28;20048;-69
2022/04/21 03:55:42;;;;;;;14.55;7.15;;;5.70;99.90;;;;;;5053157;28;20071;-70
2022/04/21 03:58:08;;;;;;;14.60;6.32;;;5.70;99.90;;;;;;5053169;28;20033;-70
2022/04/21 04:00:33;;;;;;;11.65;6.18;;;5.80;99.90;;;;;;5018732;28;20056;-70
2022/04/21 04:02:59;;;;;;;11.73;6.10;;;5.70;99.90;;;;;;5052488;28;20044;-67
2022/04/21 04:05:25;;;;;;;13.85;6.20;;;5.70;99.90;;;;;;5034598;28;20440;-70
2022/04/21 04:10:53;;;;;;;12.07;6.47;;;5.70;99.90;;;;;;5052887;28;20049;-70
2022/04/21 04:13:24;;;;;;;12.43;6.07;;;5.60;99.90;;;;;;5034986;28;20045;-70
2022/04/21 04:15:51;;;;;;;12.57;6.38;;;5.60;99.90;;;;;;5052827;28;20116;-71
2022/04/21 04:18:18;;;;;;;12.82;6.63;;;5.90;99.90;;;;;;5051991;28;20049;-70
2022/04/21 04:20:46;;;;;;;13.18;6.80;;;5.60;99.90;;;;;;5052810;28;20088;-70
2022/04/21 04:23:17;;;;;;;14.30;6.60;;;5.60;99.90;;;;;;5035204;28;20123;-70
2022/04/21 04:25:43;;;;;;;12.20;5.43;;;5.50;99.90;;;;;;5034877;28;20052;-70
2022/04/21 04:28:08;;;;;;;13.52;5.75;;;5.50;99.90;;;;;;5052629;28;20045;-70
2022/04/21 04:30:34;;;;;;;14.82;5.93;;;5.50;99.90;;;;;;5034887;28;20056;-70
2022/04/21 04:33:00;;;;;;;13.65;6.35;;;5.50;99.90;;;;;;5052035;28;20668;-70
2022/04/21 04:35:26;;;;;;;14.27;6.68;;;5.40;99.90;;;;;;5052204;28;20048;-71
2022/04/21 04:37:52;;;;;;;14.73;6.47;;;5.40;99.90;;;;;;5052715;28;20128;-70
2022/04/21 04:40:19;;;;;;;13.93;7.25;;;5.40;99.90;;;;;;5052567;28;20045;-70
2022/04/21 04:42:45;;;;;;;13.82;6.85;;;5.40;99.90;;;;;;5034807;28;20040;-70
2022/04/21 04:47:55;;;;;;;13.23;6.97;;;5.30;99.90;;;;;;5052398;28;20084;-71
2022/04/21 04:50:21;;;;;;;14.00;7.00;;;5.30;99.90;;;;;;5052072;28;20060;-69
2022/04/21 04:52:49;;;;;;;14.98;6.53;;;5.30;99.90;;;;;;5052633;28;20049;-71
2022/04/21 04:55:15;;;;;;;13.48;6.90;;;5.30;99.90;;;;;;5052423;28;20052;-68
2022/04/21 04:57:41;;;;;;;15.38;7.65;;;5.40;99.90;;;;;;5052627;28;20057;-70
2022/04/21 05:00:10;;;;;;;13.98;6.97;;;5.40;99.90;;;;;;5052273;28;20084;-70
2022/04/21 05:02:36;;;;;;;14.68;6.97;;;5.40;99.90;;;;;;5052556;28;20079;-70
2022/04/21 05:05:02;;;;;;;16.50;7.00;;;5.50;99.90;;;;;;5051810;28;20475;-70
2022/04/21 05:07:27;;;;;;;16.58;7.32;;;5.60;99.90;;;;;;5034205;28;20524;-69
2022/04/21 05:09:53;;;;;;;13.65;6.78;;;5.60;99.90;;;;;;5052464;28;20155;-70
2022/04/21 05:12:19;;;;;;;14.40;6.50;;;5.70;99.90;;;;;;5052220;28;20051;-70
2022/04/21 05:14:45;;;;;;;13.93;6.43;;;5.70;99.90;;;;;;5052204;28;20052;-70
2022/04/21 05:17:10;;;;;;;13.82;6.70;;;5.70;99.90;;;;;;5034982;28;20052;-69
2022/04/21 05:19:36;;;;;;;15.07;6.90;;;6.00;99.90;;;;;;5037970;28;20437;-70
2022/04/21 05:22:04;;;;;;;13.25;6.47;;;5.80;99.90;;;;;;5037696;28;20049;-70
2022/04/21 05:24:33;;;;;;;12.38;6.28;;;5.90;99.90;;;;;;5055833;28;20119;-69
2022/04/21 05:27:00;;;;;;;13.45;6.90;;;5.90;99.90;;;;;;5055568;28;20123;-68
2022/04/21 05:32:11;;;;;;;14.43;6.97;;;5.90;99.90;;;;;;5055491;28;20115;-68
2022/04/21 05:34:38;;;;;;;14.70;6.32;;;6.00;99.90;;;;;;5049920;28;20064;-69
2022/04/21 05:37:04;;;;;;;12.52;6.13;;;6.10;99.90;;;;;;5054135;28;20049;-72
2022/04/21 05:39:30;;;;;;;15.52;6.43;;;6.10;99.90;;;;;;5054807;28;20048;-72
2022/04/21 05:41:57;;;;;;;13.05;6.18;;;6.20;99.90;;;;;;5057729;28;20500;-72
2022/04/21 05:44:24;;;;;;;14.23;6.50;;;6.30;99.90;;;;;;5074419;28;20404;-68
2022/04/21 05:46:50;;;;;;;12.85;6.18;;;6.40;99.90;;;;;;5074182;28;20044;-69
2022/04/21 05:49:17;;;;;;;13.85;6.82;;;6.50;99.90;;;;;;5074686;28;20056;-70
2022/04/21 05:51:46;;;;;;;12.60;6.15;;;6.60;99.90;;;;;;5056624;28;20047;-70
2022/04/21 05:54:12;;;;;;;12.30;5.50;;;6.70;99.90;;;;;;5074214;28;20074;-70
2022/04/21 05:56:38;;;;;;;12.73;5.35;;;6.80;99.90;;;;;;5056303;28;20094;-70
2022/04/21 05:59:04;;;;;;;12.02;5.70;;;6.90;99.90;;;;;;5074325;28;20496;-67
2022/04/21 06:01:30;;;;;;;11.98;6.03;;;7.00;99.90;;;;;;5056412;28;20520;-69
2022/04/21 06:03:56;;;;;;;12.27;5.35;;;7.10;99.90;;;;;;5074023;28;20380;-70
2022/04/21 06:06:22;;;;;;;10.85;4.93;;;8.10;99.90;;;;;;5074271;28;20048;-70
2022/04/21 06:08:48;;;;;;;12.98;4.65;;;7.30;99.90;;;;;;5056284;28;20053;-70
2022/04/21 06:11:14;;;;;;;11.68;4.70;;;7.40;99.90;;;;;;5056742;28;20047;-70
2022/04/21 06:13:41;;;;;;;10.07;4.15;;;7.50;99.90;;;;;;5074850;28;20052;-70
2022/04/21 06:16:07;;;;;;;10.75;4.50;;;7.60;99.90;;;;;;5074770;28;20044;-68
2022/04/21 06:18:33;;;;;;;12.18;5.15;;;7.70;99.90;;;;;;5074651;28;20392;-70
2022/04/21 06:21:00;;;;;;;10.73;4.25;;;7.80;99.90;;;;;;5074369;28;20044;-70
2022/04/21 06:23:26;;;;;;;11.15;4.80;;;7.90;99.90;;;;;;5074266;28;20049;-70
2022/04/21 06:25:58;;;;;;;12.55;4.95;;;8.00;99.90;;;;;;5074123;28;20044;-70
2022/04/21 06:28:25;;;;;;;9.90;4.25;;;8.10;99.90;;;;;;5074308;28;20052;-69
2022/04/21 06:30:50;;;;;;;10.25;4.05;;;8.20;99.90;;;;;;5074582;28;20109;-71
2022/04/21 06:33:17;;;;;;;8.77;3.90;;;8.40;99.90;;;;;;5059679;28;20107;-69
2022/04/21 06:35:44;;;;;;;8.70;3.83;;;8.30;99.90;;;;;;5054153;28;20500;-71
2022/04/21 06:38:10;;;;;;;10.20;3.92;;;8.50;99.90;;;;;;5035844;28;20126;-71
2022/04/21 06:40:36;;;;;;;9.43;4.10;;;8.60;99.90;;;;;;5035605;28;20528;-71
2022/04/21 06:43:02;;;;;;;10.80;3.95;;;8.80;99.90;;;;;;5053192;28;20056;-71
2022/04/21 06:48:13;;;;;;;11.38;3.80;;;9.00;99.90;;;;;;5053323;28;20048;-71
2022/04/21 06:50:40;;;;;;;9.55;3.58;;;9.10;99.90;;;;;;5053280;28;20102;-71
2022/04/21 06:53:10;;;;;;;9.15;3.60;;;9.20;99.90;;;;;;5035746;28;20041;-70
2022/04/21 06:55:35;;;;;;;9.77;3.08;;;9.30;99.90;;;;;;5035127;28;20057;-71
2022/04/21 06:58:02;;;;;;;10.10;3.78;;;9.30;99.90;;;;;;5053005;28;20041;-71
2022/04/21 07:00:28;;;;;;;10.18;3.65;;;9.40;99.90;;;;;;5053154;28;20103;-71
2022/04/21 07:02:56;;;;;;;7.40;3.22;;;9.50;99.90;;;;;;5035565;28;20047;-70
2022/04/21 07:05:24;;;;;;;8.65;2.95;;;9.70;99.90;;;;;;5052822;28;20060;-71
2022/04/21 07:07:50;;;;;;;6.90;3.00;;;9.70;99.90;;;;;;5053209;28;20061;-71
2022/04/21 07:10:17;;;;;;;8.25;3.40;;;9.80;99.90;;;;;;5053224;28;20060;-71
2022/04/21 07:12:43;;;;;;;8.00;4.00;;;9.90;99.90;;;;;;5052500;28;20045;-70
2022/04/21 07:15:10;;;;;;;8.05;3.45;;;10.00;99.90;;;;;;5034971;28;20060;-71
2022/04/21 07:17:37;;;;;;;8.82;3.75;;;10.10;99.90;;;;;;5052869;28;20041;-71
2022/04/21 07:20:05;;;;;;;8.63;3.85;;;10.30;99.90;;;;;;5035055;28;20045;-72
2022/04/21 07:22:30;;;;;;;9.05;2.92;;;10.30;99.90;;;;;;5053077;28;20057;-74
2022/04/21 07:24:57;;;;;;;9.68;2.90;;;10.40;99.90;;;;;;5053073;28;20041;-72
2022/04/21 07:27:24;;;;;;;7.18;2.80;;;10.70;99.90;;;;;;5034679;28;20056;-73
2022/04/21 07:29:50;;;;;;;8.93;3.10;;;10.50;99.90;;;;;;5034488;28;20183;-73
2022/04/21 07:32:17;;;;;;;8.93;3.30;;;10.60;99.90;;;;;;5052818;28;20174;-74
2022/04/21 07:34:43;;;;;;;9.15;3.05;;;10.60;99.90;;;;;;5052505;28;20072;-73
2022/04/21 07:37:09;;;;;;;8.73;3.03;;;10.70;99.90;;;;;;5035092;28;20049;-72
2022/04/21 07:39:40;;;;;;;7.13;2.90;;;11.10;99.90;;;;;;5052304;28;20095;-74
2022/04/21 07:42:10;;;;;;;6.30;2.43;;;10.90;99.90;;;;;;5034710;28;20053;-72
2022/04/21 07:44:36;;;;;;;8.35;3.10;;;10.90;99.90;;;;;;5034495;28;20052;-73
2022/04/21 07:47:04;;;;;;;8.25;3.20;;;11.00;99.90;;;;;;5034305;28;20455;-72
2022/04/21 07:49:46;;;;;;;8.05;3.25;;;11.10;99.90;;;;;;5052225;28;20044;-73
2022/04/21 07:55:24;;;;;;;7.47;2.60;;;11.30;99.90;;;;;;5052665;28;20315;-70
2022/04/21 07:57:51;;;;;;;7.20;2.67;;;11.30;99.90;;;;;;5052863;28;20041;-70
2022/04/21 08:00:18;;;;;;;6.95;2.65;;;11.40;99.90;;;;;;5034702;28;20102;-70
2022/04/21 08:02:46;;;;;;;10.75;3.03;;;11.50;99.90;;;;;;5052325;28;20041;-69
2022/04/21 08:05:13;;;;;;;9.18;2.80;;;11.50;99.90;;;;;;5056809;28;20049;-70
2022/04/21 08:07:39;;;;;;;8.85;3.38;;;11.50;99.90;;;;;;5054778;28;20045;-70
2022/04/21 08:10:08;;;;;;;5.40;2.05;;;11.60;99.90;;;;;;5033191;28;20048;-69
2022/04/21 08:12:39;;;;;;;6.53;2.35;;;11.70;99.90;;;;;;5028967;28;20519;-69
2022/04/21 08:15:10;;;;;;;6.87;2.50;;;11.80;99.90;;;;;;5032536;28;20064;-70
2022/04/21 08:17:37;;;;;;;6.97;2.50;;;11.90;99.90;;;;;;5031983;28;20053;-67
2022/04/21 08:20:09;;;;;;;14.35;3.22;;;12.10;99.90;;;;;;5030583;28;20053;-69
2022/04/21 08:22:35;;;;;;;7.47;2.47;;;12.30;99.90;;;;;;5050432;28;20138;-69
2022/04/21 08:33:18;;;;;;;7.18;2.05;;;12.40;99.90;;;;;;5049276;28;20048;-70
2022/04/21 08:35:45;;;;;;;6.38;2.10;;;12.40;99.90;;;;;;5027731;28;20077;-70
2022/04/21 08:38:11;;;;;;;8.68;4.63;;;12.60;99.90;;;;;;5050096;28;20395;-70
2022/04/21 08:40:38;;;;;;;6.70;2.42;;;12.70;99.90;;;;;;5047849;28;20478;-71
2022/04/21 08:43:15;;;;;;;7.28;2.50;;;12.80;99.90;;;;;;5049260;28;20503;-68
2022/04/21 08:45:43;;;;;;;7.10;2.20;;;12.90;99.50;;;;;;5032296;28;20053;-71
2022/04/21 08:48:11;;;;;;;6.93;2.30;;;12.90;99.50;;;;;;5049834;28;20041;-69
2022/04/21 08:50:37;;;;;;;7.03;2.75;;;13.00;99.20;;;;;;5046631;28;20041;-69
2022/04/21 08:53:05;;;;;;;6.13;2.60;;;13.00;99.00;;;;;;5051689;28;20082;-72
2022/04/21 08:55:31;;;;;;;6.03;2.22;;;13.10;98.70;;;;;;5019346;28;20064;-69
2022/04/21 08:57:58;;;;;;;5.82;2.22;;;13.20;98.20;;;;;;5035775;28;20159;-72
2022/04/21 09:00:23;;;;;;;6.82;2.63;;;13.30;98.70;;;;;;5033474;28;20115;-69
2022/04/21 09:02:50;;;;;;;6.88;2.25;;;13.40;97.90;;;;;;5035541;28;20131;-71
2022/04/21 09:05:16;;;;;;;6.57;2.42;;;13.40;97.50;;;;;;5053204;28;20066;-70
2022/04/21 09:07:44;;;;;;;5.30;1.83;;;13.40;96.40;;;;;;5053008;28;20087;-69
2022/04/21 09:10:11;;;;;;;6.57;2.55;;;13.50;96.70;;;;;;5033543;28;20064;-70
2022/04/21 09:12:44;;;;;;;6.22;1.98;;;13.60;95.70;;;;;;5030419;28;20498;-68
2022/04/21 09:15:15;;;;;;;11.20;2.88;;;13.70;95.30;;;;;;5053580;28;20128;-69
2022/04/21 09:17:48;;;;;;;6.72;2.50;;;13.80;95.60;;;;;;5052703;28;20164;-68
2022/04/21 09:20:17;;;;;;;5.95;2.47;;;13.90;94.90;;;;;;5033805;28;20451;-69
2022/04/21 09:22:54;;;;;;;7.28;2.42;;;14.00;94.80;;;;;;5034278;28;20512;-75
2022/04/21 09:25:25;;;;;;;6.68;2.47;;;13.90;94.10;;;;;;5035651;28;20395;-77
2022/04/21 09:27:52;;;;;;;7.30;2.40;;;13.90;93.80;;;;;;5035746;28;20110;-70
2022/04/21 09:30:18;;;;;;;6.75;2.65;;;14.00;94.80;;;;;;5058357;28;20060;-72
2022/04/21 09:32:59;;;;;;;6.03;2.50;;;14.20;95.20;;;;;;5055535;28;20427;-72
2022/04/21 09:35:27;;;;;;;6.55;2.72;;;14.30;94.90;;;;;;5056551;28;20096;-77
2022/04/21 09:37:55;;;;;;;6.13;2.42;;;14.40;94.00;;;;;;5036480;28;20094;-71
2022/04/21 09:40:25;;;;;;;10.52;2.80;;;14.40;93.10;;;;;;5052730;28;20057;-74
2022/04/21 09:43:02;;;;;;;7.07;2.67;;;14.40;93.10;;;;;;5056600;28;20053;-73
2022/04/21 09:48:30;;;;;;;8.10;2.80;;;14.70;93.70;;;;;;5052352;28;20045;-74
2022/04/21 09:51:17;;;;;;;7.03;2.40;;;14.70;92.10;;;;;;5032881;28;20190;-73
2022/04/21 09:53:53;;;;;;;7.53;2.53;;;14.70;92.10;;;;;;5034147;28;20568;-73
2022/04/21 09:56:31;;;;;;;6.95;2.25;;;14.70;90.70;;;;;;5034612;28;20048;-75
2022/04/21 09:58:57;;;;;;;6.03;2.65;;;14.70;91.20;;;;;;5035141;28;20611;-77
2022/04/21 10:01:22;;;;;;;6.88;2.53;;;14.70;91.20;;;;;;5051163;28;20072;-75
2022/04/21 10:03:48;;;;;;;6.72;2.55;;;14.80;91.40;;;;;;5037043;28;20103;-77
2022/04/21 10:06:16;;;;;;;7.88;2.60;;;14.80;90.60;;;;;;5034773;28;20060;-76
2022/04/21 10:08:43;;;;;;;6.55;2.80;;;14.80;91.00;;;;;;5051658;28;20501;-76
2022/04/21 10:11:09;;;;;;;6.93;2.72;;;14.90;91.20;;;;;;5032807;28;20041;-74
2022/04/21 10:13:36;;;;;;;7.35;2.90;;;15.00;91.00;;;;;;5052208;28;20040;-77
2022/04/21 10:16:02;;;;;;;7.93;2.75;;;15.00;90.80;;;;;;5051803;28;20092;-77
2022/04/21 10:18:28;;;;;;;6.80;2.00;;;15.20;91.30;;;;;;5034481;28;20151;-74
2022/04/21 10:20:57;;;;;;;5.85;2.25;;;15.30;90.00;;;;;;5032279;28;20069;-75
2022/04/21 10:23:26;;;;;;;6.45;2.75;;;15.30;89.70;;;;;;5034425;28;20052;-76
2022/04/21 10:26:03;;;;;;;6.70;2.40;;;15.20;87.90;;;;;;5033818;28;20037;-75
2022/04/21 10:28:48;;;;;;;6.80;2.60;;;15.10;87.80;;;;;;5051765;28;20103;-77
2022/04/21 10:31:30;;;;;;;7.43;2.60;;;14.90;88.30;;;;;;5050037;28;20131;-74
2022/04/21 10:34:04;;;;;;;6.30;2.47;;;15.00;89.50;;;;;;5033618;28;20048;-75
2022/04/21 10:36:42;;;;;;;5.90;2.35;;;15.00;88.60;;;;;;5033641;28;20294;-72
2022/04/21 10:39:09;;;;;;;8.35;2.60;;;14.90;87.50;;;;;;5047668;28;20103;-74
2022/04/21 10:41:36;;;;;;;6.78;2.03;;;14.80;86.80;;;;;;5031119;28;20106;-73
2022/04/21 10:44:03;;;;;;;6.60;2.42;;;14.80;87.80;;;;;;5051538;28;20500;-73
2022/04/21 10:46:30;;;;;;;7.35;2.45;;;14.90;87.60;;;;;;5033514;28;20111;-73
2022/04/21 10:48:58;;;;;;;6.03;2.42;;;15.00;87.80;;;;;;5029750;28;20085;-73
2022/04/21 10:51:41;;;;;;;9.57;2.60;;;15.00;87.50;;;;;;5049584;28;20045;-72
2022/04/21 11:00:05;;;;;;;8.35;2.42;;;15.20;85.20;;;;;;5030404;28;20075;-76
2022/04/21 11:02:38;;;;;;;6.97;2.25;;;15.20;84.70;;;;;;5028873;28;20127;-76
2022/04/21 11:05:31;;;;;;;6.03;2.40;;;15.20;85.60;;;;;;5032937;28;20064;-76
2022/04/21 11:08:02;;;;;;;6.53;2.75;;;15.10;85.20;;;;;;5050992;28;20111;-74
2022/04/21 11:10:39;;;;;;;8.27;2.95;;;15.10;85.90;;;;;;5049487;28;20060;-73
2022/04/21 11:13:06;;;;;;;7.43;3.03;;;15.20;86.90;;;;;;5015945;28;20056;-76
2022/04/21 11:15:45;;;;;;;7.25;2.92;;;15.30;87.30;;;;;;5049953;28;20057;-74
2022/04/21 11:18:12;;;;;;;6.38;2.72;;;15.40;86.70;;;;;;5050864;28;20068;-72
2022/04/21 11:20:42;;;;;;;8.35;2.80;;;15.40;86.00;;;;;;5048707;28;20097;-77
2022/04/21 11:23:09;;;;;;;8.75;2.97;;;15.40;84.20;;;;;;5048162;28;20492;-76
2022/04/21 11:25:35;;;;;;;7.40;2.60;;;15.30;84.20;;;;;;5032872;28;20045;-76
2022/04/21 11:28:02;;;;;;;12.25;2.92;;;15.30;85.10;;;;;;5050603;28;20095;-73
2022/04/21 11:30:29;;;;;;;8.93;3.10;;;15.30;85.80;;;;;;5026323;28;20068;-75
2022/04/21 11:32:55;;;;;;;7.00;2.88;;;15.40;85.30;;;;;;5016344;28;20052;-76
2022/04/21 11:35:22;;;;;;;8.02;3.13;;;15.50;83.60;;;;;;5033338;28;20480;-77
2022/04/21 11:37:49;;;;;;;6.30;2.70;;;15.70;83.60;;;;;;5050979;28;20044;-72
2022/04/21 11:40:27;;;;;;;8.82;3.00;;;15.90;82.40;;;;;;5048610;28;20135;-76
2022/04/21 11:42:54;;;;;;;6.18;2.58;;;15.80;81.10;;;;;;5050789;28;20044;-76
2022/04/21 11:45:24;;;;;;;8.15;2.78;;;15.90;81.70;;;;;;5049955;28;20040;-75
2022/04/21 11:47:50;;;;;;;6.82;3.03;;;15.90;82.10;;;;;;5047359;28;20044;-76
2022/04/21 11:50:21;;;;;;;10.68;3.20;;;16.00;83.20;;;;;;5031319;28;20065;-77
2022/04/21 11:52:52;;;;;;;7.45;2.70;;;16.20;83.00;;;;;;5049525;28;20051;-72
2022/04/21 11:55:30;;;;;;;7.93;3.07;;;16.30;82.90;;;;;;5046107;28;20044;-74
2022/04/21 11:57:56;;;;;;;7.45;3.20;;;16.40;81.80;;;;;;5032375;28;20353;-74
2022/04/21 12:08:46;;;;;;;9.25;3.05;;;16.30;81.20;;;;;;5050387;28;20053;-73
2022/04/21 12:11:14;;;;;;;8.65;3.10;;;16.70;82.60;;;;;;5048075;28;20044;-75
2022/04/21 12:13:40;;;;;;;8.50;3.15;;;16.90;80.50;;;;;;5031414;28;20129;-77
2022/04/21 12:16:35;;;;;;;9.13;2.92;;;17.20;81.70;;;;;;5049714;28;20123;-75
2022/04/21 12:19:18;;;;;;;7.32;2.92;;;17.40;79.90;;;;;;5028816;28;20116;-73
2022/04/21 12:21:54;;;;;;;7.75;3.25;;;17.20;78.70;;;;;;5045281;28;20114;-75
2022/04/21 12:24:20;;;;;;;20.90;4.43;;;17.20;77.00;;;;;;5055488;28;20037;-76
2022/04/21 12:26:48;;;;;;;11.50;4.20;;;17.10;77.40;;;;;;5053496;28;20503;-75
2022/04/21 12:29:14;;;;;;;7.32;3.30;;;16.90;77.60;;;;;;5055553;28;20056;-73
2022/04/21 12:32:05;;;;;;;9.98;3.78;;;16.60;77.60;;;;;;5056648;28;20045;-78
2022/04/21 12:34:38;;;;;;;8.23;3.15;;;16.50;77.80;;;;;;5084396;28;20048;-76
2022/04/21 12:37:06;;;;;;;7.78;3.00;;;16.60;79.40;;;;;;5092330;28;20080;-74
2022/04/21 12:39:32;;;;;;;7.93;2.97;;;16.60;78.60;;;;;;5091879;28;20112;-77
2022/04/21 12:42:03;;;;;;;7.82;3.13;;;16.70;78.80;;;;;;5069442;28;20044;-78
2022/04/21 12:44:29;;;;;;;8.07;3.55;;;16.70;78.00;;;;;;5091641;28;20105;-75
2022/04/21 12:47:04;;;;;;;8.68;3.10;;;16.80;77.60;;;;;;5092155;28;20521;-77
2022/04/21 12:49:48;;;;;;;9.07;3.75;;;16.70;77.90;;;;;;5054767;28;20095;-76
2022/04/21 12:52:14;;;;;;;9.30;3.78;;;16.60;76.90;;;;;;5072223;28;20495;-74
2022/04/21 12:54:40;;;;;;;8.98;3.30;;;16.70;77.60;;;;;;5085137;28;20149;-75
2022/04/21 12:57:09;;;;;;;8.90;3.45;;;16.70;77.10;;;;;;5091854;28;20044;-77
2022/04/21 12:59:35;;;;;;;9.00;3.38;;;16.70;77.00;;;;;;5091769;28;20054;-75
2022/04/21 13:02:01;;;;;;;8.18;3.20;;;16.60;77.30;;;;;;5052202;28;20041;-71
2022/04/21 13:04:27;;;;;;;8.88;3.60;;;16.70;76.80;;;;;;5073110;28;20060;-71
2022/04/21 13:06:53;;;;;;;8.45;3.35;;;16.60;77.00;;;;;;5076889;28;20110;-72
2022/04/21 13:09:18;;;;;;;7.78;3.67;;;16.70;77.30;;;;;;5055964;28;20123;-71
2022/04/21 13:11:44;;;;;;;9.32;3.65;;;16.80;77.40;;;;;;5050322;28;20049;-72
2022/04/21 13:14:10;;;;;;;7.85;2.90;;;16.80;76.50;;;;;;5072367;28;20139;-73
2022/04/21 13:16:35;;;;;;;10.25;3.60;;;17.00;77.00;;;;;;5067193;28;20145;-75
2022/04/21 13:19:01;;;;;;;8.80;3.40;;;16.90;76.80;;;;;;5059039;28;20079;-78
2022/04/21 13:24:18;;;;;;;10.70;3.60;;;17.00;77.60;;;;;;5070208;28;20480;-75
2022/04/21 13:26:44;;;;;;;10.57;4.28;;;17.20;78.10;;;;;;5070599;28;20113;-75
2022/04/21 13:29:09;;;;;;;8.07;3.10;;;17.30;78.20;;;;;;5074193;28;20048;-72
2022/04/21 13:34:19;;;;;;;10.88;3.95;;;17.10;78.20;;;;;;5076081;28;20550;-75
2022/04/21 13:36:45;;;;;;;8.35;3.80;;;17.10;78.70;;;;;;5075008;28;20045;-80
2022/04/21 13:39:11;;;;;;;9.13;3.50;;;17.00;77.60;;;;;;5054509;28;20386;-72
2022/04/21 13:41:37;;;;;;;9.07;3.75;;;17.00;78.10;;;;;;5064545;28;20048;-75
2022/04/21 13:44:03;;;;;;;9.18;3.70;;;17.00;78.80;;;;;;5070839;28;20048;-77
2022/04/21 13:46:28;;;;;;;11.07;4.63;;;17.10;79.10;;;;;;5072759;28;20043;-76
2022/04/21 13:48:56;;;;;;;9.73;4.00;;;17.20;79.00;;;;;;5055150;28;20468;-78
2022/04/21 13:51:24;;;;;;;9.77;4.22;;;17.30;79.50;;;;;;5053551;28;20583;-71
2022/04/21 13:53:51;;;;;;;10.68;3.85;;;17.40;79.00;;;;;;5071246;28;20124;-78